Weather reports worldwide

Advertisment
Santa Susana, Spain (8188): temperature & dewpoint: 10.09.2019 05:00:00 - 16.09.2019 05:00:00 (CEST)Santa Susana, Spain (8188): wind speed & gusts: 10.09.2019 05:00:00 - 16.09.2019 05:00:00 (CEST)Santa Susana, Spain (8188): wind direction: 10.09.2019 05:00:00 - 16.09.2019 05:00:00 (CEST)Santa Susana, Spain (8188): precipitation: 10.09.2019 05:00:00 - 16.09.2019 05:00:00 (CEST)
Date & Time tt [°C] td [°C] ff [km/h] ff [kn] fx [km/h] fx [kn] dd rr [mm]
16.09.2019 05:00:00 - - - - - - - -
16.09.2019 04:00:00 16,4 13,2 4 2 7 4 ENE 0,0
16.09.2019 03:00:00 15,9 13,1 2 1 5 3 ENE 0,0
16.09.2019 02:00:00 16,3 13,4 3 2 5 3 ENE -
16.09.2019 01:00:00 16,2 13,4 2 1 4 2 ENE 0,0
16.09.2019 00:00:00 16,8 13,6 2 1 5 3 ENE 0,0
15.09.2019 23:00:00 17,8 14,7 2 1 5 3 ENE 0,0
15.09.2019 22:00:00 19,1 16,0 3 1 4 2 ENE 0,0
15.09.2019 21:00:00 19,7 16,0 1 0 7 4 E 0,0
15.09.2019 20:00:00 22,5 16,7 2 1 16 9 NNE -
15.09.2019 19:00:00 24,4 15,1 6 3 19 10 ENE 0,0
15.09.2019 18:00:00 26,1 16,6 7 4 19 10 ENE 0,0
15.09.2019 17:00:00 27,6 16,6 13 7 20 11 ENE 0,0
15.09.2019 16:00:00 28,0 17,5 8 5 20 11 ENE 0,0
15.09.2019 15:00:00 28,2 17,1 9 5 19 10 ENE 0,0
15.09.2019 14:00:00 27,6 16,2 13 7 19 10 ENE -
15.09.2019 13:00:00 27,9 15,9 8 5 19 10 NE 0,0
15.09.2019 12:00:00 26,6 16,6 8 5 22 12 N 0,0
15.09.2019 11:00:00 24,3 15,8 9 5 22 12 NE 0,0
15.09.2019 10:00:00 22,1 13,8 12 6 24 13 ENE 0,0
15.09.2019 09:00:00 20,9 12,5 11 6 24 13 ENE 0,0
15.09.2019 08:00:00 19,4 12,2 9 5 18 10 NNW -
15.09.2019 07:00:00 19,6 11,7 6 4 18 10 ENE 0,0
15.09.2019 06:00:00 20,4 11,3 6 3 21 12 NE 0,0
15.09.2019 05:00:00 20,5 12,2 11 6 31 17 NE 0,0
15.09.2019 04:00:00 20,9 14,3 14 8 23 12 ENE 0,0
15.09.2019 03:00:00 19,4 14,4 3 2 7 4 NE 0,0
15.09.2019 02:00:00 21,9 14,0 3 1 20 11 NE -
15.09.2019 01:00:00 21,4 14,5 11 6 22 12 NE 0,0
15.09.2019 00:00:00 21,7 15,5 12 7 22 12 ENE 0,0
14.09.2019 23:00:00 21,6 15,9 8 5 23 13 NE 0,0
14.09.2019 22:00:00 22,1 15,0 7 4 18 10 NE 0,0
14.09.2019 21:00:00 22,6 14,4 5 3 11 6 NNE 0,0
14.09.2019 20:00:00 22,3 16,3 4 2 14 7 E -
14.09.2019 19:00:00 23,8 15,8 9 5 18 10 NE 0,0
14.09.2019 18:00:00 25,5 14,6 11 6 23 13 ENE 0,0
14.09.2019 17:00:00 25,5 14,0 10 5 21 11 ENE 0,0
14.09.2019 16:00:00 29,2 12,6 9 5 20 11 ENE 0,0
14.09.2019 15:00:00 29,5 12,8 8 4 23 13 ENE 0,0
14.09.2019 14:00:00 28,6 11,7 9 5 24 13 ENE -
14.09.2019 13:00:00 28,3 13,1 5 3 21 11 ENE 0,0
14.09.2019 12:00:00 27,3 12,5 8 4 21 12 ENE 0,0
14.09.2019 11:00:00 26,6 12,2 10 5 25 14 ENE 0,0
14.09.2019 10:00:00 24,3 11,2 11 6 29 16 NE 0,0
14.09.2019 09:00:00 23,1 11,4 8 5 24 13 NNE 0,0
14.09.2019 08:00:00 22,0 11,1 9 5 24 13 NE -
14.09.2019 07:00:00 22,3 11,1 11 6 28 15 ENE 0,0
14.09.2019 06:00:00 22,4 11,1 15 8 29 16 NE 0,0
14.09.2019 05:00:00 21,1 11,7 11 6 34 18 NE 0,0
14.09.2019 04:00:00 21,1 12,5 11 6 25 14 ENE 0,0
14.09.2019 03:00:00 18,6 15,9 3 1 26 14 ENE 0,0
14.09.2019 02:00:00 19,4 13,4 1 1 11 6 NNE -
14.09.2019 01:00:00 20,7 12,4 1 0 10 6 E 0,0
14.09.2019 00:00:00 22,3 12,5 4 2 9 5 N 0,0
13.09.2019 23:00:00 20,5 13,3 1 0 7 4 NE 0,0
13.09.2019 22:00:00 21,1 14,2 4 2 12 6 NNE 0,0
13.09.2019 21:00:00 21,1 17,1 4 2 14 8 NNW 0,0
13.09.2019 20:00:00 22,0 16,7 9 5 20 11 ENE -
13.09.2019 19:00:00 24,0 15,8 10 6 18 10 ENE 0,0
13.09.2019 18:00:00 27,9 14,9 1 0 22 12 E 0,0
13.09.2019 17:00:00 26,6 13,0 7 4 27 14 NE 0,0
13.09.2019 16:00:00 27,9 13,5 9 5 27 15 NNE 0,0
13.09.2019 15:00:00 25,5 13,7 6 3 15 8 ENE 0,0
13.09.2019 14:00:00 25,2 12,7 10 5 17 9 E -
13.09.2019 13:00:00 24,4 15,6 10 6 17 9 SW 0,0
13.09.2019 12:00:00 25,4 12,2 5 3 19 11 E 0,0
13.09.2019 11:00:00 23,8 10,8 6 3 26 14 NNE 0,0
13.09.2019 10:00:00 22,7 9,8 6 4 32 18 N 0,0
13.09.2019 09:00:00 22,4 9,6 11 6 25 13 N 0,0
13.09.2019 08:00:00 19,2 8,5 6 3 17 9 ENE -
13.09.2019 07:00:00 21,1 8,7 6 4 18 10 NE 0,0
13.09.2019 06:00:00 20,8 9,4 10 5 29 16 NNW 0,0
13.09.2019 05:00:00 21,0 9,9 6 3 19 10 N 0,0
13.09.2019 04:00:00 19,5 10,5 6 3 14 7 ENE 0,0
13.09.2019 03:00:00 20,6 9,8 4 2 16 9 NNE 0,0
13.09.2019 02:00:00 18,5 11,3 4 2 9 5 ENE -
13.09.2019 01:00:00 18,6 10,6 4 2 10 6 ENE 0,0
13.09.2019 00:00:00 21,0 9,9 5 3 20 11 NE 0,0
12.09.2019 23:00:00 21,4 9,9 10 6 21 11 NE 0,0
12.09.2019 22:00:00 22,1 9,6 9 5 20 11 N 0,0
12.09.2019 21:00:00 19,8 13,9 3 2 13 7 ENE 0,0
12.09.2019 20:00:00 22,5 13,6 6 3 17 9 ENE -
12.09.2019 19:00:00 24,3 13,3 11 6 28 15 ENE 0,0
12.09.2019 18:00:00 28,3 8,5 16 9 33 18 ENE 0,0
12.09.2019 17:00:00 29,3 9,4 16 8 44 24 ENE 0,0
12.09.2019 16:00:00 30,5 10,4 10 5 34 18 NE 0,0
12.09.2019 15:00:00 29,7 9,8 12 6 36 19 ENE 0,0
12.09.2019 14:00:00 29,2 10,8 10 6 22 12 E -
12.09.2019 13:00:00 27,2 13,6 1 1 19 11 N 0,0
12.09.2019 12:00:00 27,1 10,3 9 5 22 12 E 0,0
12.09.2019 11:00:00 25,8 9,6 10 6 24 13 NNE 0,0
12.09.2019 10:00:00 23,2 9,9 6 3 26 14 NNW 0,0
12.09.2019 09:00:00 20,6 9,2 12 6 23 13 NE 0,0
12.09.2019 08:00:00 19,1 8,7 8 4 19 10 N -
12.09.2019 07:00:00 19,4 8,7 11 6 23 12 NE 0,0
12.09.2019 06:00:00 20,6 9,2 13 7 23 12 NE 0,0
12.09.2019 05:00:00 19,8 8,8 7 4 19 10 NE 0,0
12.09.2019 04:00:00 19,8 9,3 9 5 27 15 N 0,0
12.09.2019 03:00:00 19,9 10,0 10 5 23 13 N 0,0
12.09.2019 02:00:00 20,1 10,2 12 7 24 13 NNW -
12.09.2019 01:00:00 19,7 10,4 11 6 21 12 NNW 0,0
12.09.2019 00:00:00 20,8 10,0 14 8 32 17 ENE 0,0
11.09.2019 23:00:00 21,4 9,9 11 6 27 14 NNE 0,0
11.09.2019 22:00:00 21,6 10,2 10 5 28 15 N 0,0
11.09.2019 21:00:00 22,6 9,7 11 6 27 15 NNW 0,0
11.09.2019 20:00:00 23,3 10,0 8 5 22 12 NNW -
11.09.2019 19:00:00 24,4 10,3 6 3 35 19 NE 0,0
11.09.2019 18:00:00 25,2 10,6 16 9 36 19 ENE 0,0
11.09.2019 17:00:00 25,5 11,2 12 7 40 22 N 0,0
11.09.2019 16:00:00 24,3 11,2 16 8 42 23 NNE 0,0
11.09.2019 15:00:00 23,4 12,4 13 7 41 22 NE 0,0
11.09.2019 14:00:00 20,7 12,4 13 7 37 20 NE -
11.09.2019 13:00:00 19,9 12,6 15 8 46 25 NE 0,0
11.09.2019 12:00:00 19,5 12,5 16 9 42 23 N 0,0
11.09.2019 11:00:00 17,9 13,7 14 8 31 17 NE 0,6
11.09.2019 10:00:00 16,5 13,3 13 7 35 19 NNE 0,8
11.09.2019 09:00:00 17,3 12,2 15 8 37 20 N 0,2
11.09.2019 08:00:00 16,9 12,4 11 6 40 21 NNE -
11.09.2019 07:00:00 16,1 13,3 11 6 45 24 NNE 0,0
11.09.2019 06:00:00 16,0 13,0 16 9 46 25 NNE 1,5
11.09.2019 05:00:00 17,4 10,8 17 9 42 23 NE 0,0
11.09.2019 04:00:00 16,3 11,7 18 10 54 29 NE 0,0
11.09.2019 03:00:00 16,7 10,8 16 9 47 26 NNE 0,0
11.09.2019 02:00:00 16,3 10,6 16 9 43 23 NNE -
11.09.2019 01:00:00 15,7 11,2 17 9 42 23 NNE 0,0
11.09.2019 00:00:00 14,8 11,9 12 6 34 18 NNE 0,1
10.09.2019 23:00:00 14,0 12,2 16 9 42 23 N 0,5
10.09.2019 22:00:00 13,7 11,9 14 8 34 19 NE 1,4
10.09.2019 21:00:00 15,0 11,2 13 7 28 15 NNE 0,0
10.09.2019 20:00:00 16,1 10,2 9 5 26 14 N -
10.09.2019 19:00:00 16,4 10,3 9 5 27 15 NE 0,0
10.09.2019 18:00:00 16,5 10,2 10 6 25 13 NE 0,0
10.09.2019 17:00:00 17,3 10,6 6 3 16 9 NNE 0,1
10.09.2019 16:00:00 16,5 12,0 9 5 24 13 NNW 0,0
10.09.2019 15:00:00 15,8 11,3 11 6 29 16 NNE 0,0
10.09.2019 14:00:00 13,9 11,4 13 7 31 17 N -
10.09.2019 13:00:00 13,9 11,1 10 5 28 15 NNE 0,7
10.09.2019 12:00:00 14,5 10,8 15 8 29 16 NE 0,0
10.09.2019 11:00:00 - - - - - - - -
10.09.2019 10:00:00 - - - - - - - -
10.09.2019 09:00:00 - - - - - - - -
10.09.2019 08:00:00 - - - - - - - -
10.09.2019 07:00:00 - - - - - - - -
10.09.2019 06:00:00 - - - - - - - -
10.09.2019 05:00:00 - - - - - - - -

tt = temperature
td = dewpoint
ff = wind speed
fx = gusts
dd = wind direction
rr = precipitation

Next stations